Terminal Aerodrome Forecast
Issued by NWS

Home | Current Version | Previous Version | Text Only | Print | Product List | Glossary On
Versions: 1 2 3 4 5 6 7 8 9 10 11 12 13 14 15 16 17 18
306
FTUS43 KOAX 240528
TAFSNY
TAF
KSNY 240528Z 2406/2506 01024G36KT P6SM -RA OVC008
     FM241200 36029G45KT 5SM -RASN OVC008
     FM241700 36030G45KT 5SM BR VCSH SCT020 OVC040=

USA.gov is the U.S. government's official web portal to all federal, state and local government web resources and services.